Terminal Aerodrome Forecast
Issued by NWS Charleston, WV

Home | Current Version | Previous Version | Text Only | Print | Product List | Glossary On
Versions: 1 2 3 4 5 6 7 8 9 10 11 12 13 14 15 16 17 18 19 20 21 22 23 24 25
000
FTUS41 KRLX 280900 AAA
TAFCRW
TAF AMD
KCRW 280905Z 2809/2906 24011KT P6SM SCT070
     FM281300 27010G15KT P6SM BKN025
     FM281600 29011G16KT P6SM BKN040
     FM282300 31007KT P6SM BKN035
     FM290300 VRB03KT 5SM BR BKN040=

USA.gov is the U.S. government's official web portal to all federal, state and local government web resources and services.